Terminal Aerodrome Forecast
Issued by NWS Norman, OK

Home | Current Version | Previous Version | Text Only | Print | Product List | Glossary On
Versions: 1 2 3 4 5 6 7 8 9 10 11 12
000
FTUS44 KOUN 271120
TAFOKC
TAF
KOKC 271120Z 2712/2812 16010KT P6SM SCT015 WS015/21040KT
      TEMPO 2712/2716 BKN015
     FM271600 19012G20KT P6SM SCT020 SCT150
     FM280000 21013KT P6SM FEW100 BKN250 PROB30 2800/2803 2SM +TSRA
      BKN025CB OVC060
     FM280300 01012KT P6SM BKN250=

USA.gov is the U.S. government's official web portal to all federal, state and local government web resources and services.